Time,TemperatureF,DewpointF,PressureIn,WindDirection,WindDirectionDegrees,WindSpeedMPH,WindSpeedGustMPH,Humidity,HourlyPrecipIn,Conditions,Clouds,dailyrainin,SoftwareType,DateUTC
2013-03-13 00:23:00,49.0,49.0,29.80,South,178,0.0,0.0,99,0.00,,,0.68,,2013-03-13 04:23:00,
2013-03-13 00:32:00,49.0,49.0,29.80,South,178,0.0,0.0,99,0.00,,,0.68,,2013-03-13 04:32:00,
2013-03-13 00:43:00,49.0,49.0,29.80,South,178,0.0,0.0,99,0.00,,,0.68,,2013-03-13 04:43:00,
2013-03-13 00:53:00,49.0,49.0,29.80,NNW,329,6.0,0.0,99,0.00,,,0.68,,2013-03-13 04:53:00,
2013-03-13 01:02:00,49.0,49.0,29.80,NNW,329,6.0,0.0,99,0.00,,,0.68,,2013-03-13 05:02:00,
2013-03-13 01:13:00,49.0,49.0,29.80,NNW,329,6.0,0.0,99,0.00,,,0.68,,2013-03-13 05:13:00,
2013-03-13 01:22:00,45.0,45.0,29.80,NNW,334,3.0,32.0,99,0.00,,,0.68,,2013-03-13 05:22:00,
2013-03-13 01:32:00,45.0,45.0,29.80,NNW,334,3.0,32.0,99,0.00,,,0.68,,2013-03-13 05:32:00,
2013-03-13 01:42:00,45.0,45.0,29.80,NNW,334,3.0,32.0,99,0.00,,,0.68,,2013-03-13 05:42:00,
2013-03-13 01:52:00,44.0,44.0,29.81,NW,322,2.0,32.0,99,0.00,,,0.68,,2013-03-13 05:52:00,
2013-03-13 02:02:00,44.0,44.0,29.81,NW,322,2.0,32.0,99,0.00,,,0.68,,2013-03-13 06:02:00,
2013-03-13 02:13:00,44.0,44.0,29.81,NW,322,2.0,32.0,99,0.00,,,0.68,,2013-03-13 06:13:00,
2013-03-13 02:23:00,44.0,44.0,29.81,NW,326,5.0,32.0,99,0.00,,,0.68,,2013-03-13 06:23:00,
2013-03-13 02:30:00,44.0,44.0,29.81,North,1,6.0,32.0,99,0.00,,,0.68,,2013-03-13 06:30:00,
2013-03-13 02:32:00,44.0,44.0,29.81,NW,326,5.0,32.0,99,0.00,,,0.68,,2013-03-13 06:32:00,
2013-03-13 02:42:00,44.0,44.0,29.81,NW,326,5.0,32.0,99,0.00,,,0.68,,2013-03-13 06:42:00,
2013-03-13 02:53:00,44.0,44.0,29.81,North,1,6.0,32.0,99,0.00,,,0.68,,2013-03-13 06:53:00,
2013-03-13 03:02:00,44.0,44.0,29.81,North,1,6.0,32.0,99,0.00,,,0.68,,2013-03-13 07:02:00,
2013-03-13 03:12:00,44.0,44.0,29.81,North,1,6.0,32.0,99,0.00,,,0.68,,2013-03-13 07:12:00,
2013-03-13 03:22:00,44.0,44.0,29.81,North,1,6.0,32.0,99,0.00,,,0.68,,2013-03-13 07:22:00,
2013-03-13 03:53:00,42.0,42.0,29.81,NNW,346,7.0,32.0,99,0.00,,,0.68,,2013-03-13 07:53:00,
2013-03-13 04:03:00,42.0,42.0,29.81,NNW,346,7.0,32.0,99,0.00,,,0.68,,2013-03-13 08:03:00,
2013-03-13 04:12:00,42.0,42.0,29.81,NNW,346,7.0,32.0,99,0.00,,,0.68,,2013-03-13 08:12:00,
2013-03-13 04:22:00,42.0,42.0,29.82,NW,323,6.0,32.0,99,0.00,,,0.68,,2013-03-13 08:22:00,
2013-03-13 04:32:00,42.0,42.0,29.82,NW,323,6.0,32.0,99,0.00,,,0.68,,2013-03-13 08:32:00,
2013-03-13 04:43:00,42.0,42.0,29.82,NW,323,6.0,32.0,99,0.00,,,0.68,,2013-03-13 08:43:00,
2013-03-13 04:54:00,41.0,40.0,29.83,NNW,345,7.0,32.0,98,0.00,,,0.68,,2013-03-13 08:54:00,
2013-03-13 05:02:00,41.0,40.0,29.83,NNW,345,7.0,32.0,98,0.00,,,0.68,,2013-03-13 09:02:00,
2013-03-13 05:13:00,41.0,40.0,29.83,NNW,345,7.0,32.0,98,0.00,,,0.68,,2013-03-13 09:13:00,
2013-03-13 05:22:00,40.0,39.0,29.83,NW,318,7.0,32.0,97,0.00,,,0.68,,2013-03-13 09:22:00,
2013-03-13 05:32:00,40.0,39.0,29.83,NW,318,7.0,32.0,97,0.00,,,0.68,,2013-03-13 09:32:00,
2013-03-13 05:42:00,40.0,39.0,29.83,NW,318,7.0,32.0,97,0.00,,,0.68,,2013-03-13 09:42:00,
2013-03-13 05:52:00,39.0,37.0,29.84,NW,324,7.0,32.0,94,0.00,,,0.68,,2013-03-13 09:52:00,
2013-03-13 06:00:00,39.0,37.0,29.83,NW,324,9.0,32.0,94,0.00,,,0.68,,2013-03-13 10:00:00,
2013-03-13 06:02:00,39.0,37.0,29.84,NW,324,7.0,32.0,94,0.00,,,0.68,,2013-03-13 10:02:00,
2013-03-13 06:12:00,39.0,37.0,29.84,NW,324,7.0,32.0,94,0.00,,,0.68,,2013-03-13 10:12:00,
2013-03-13 06:22:00,39.0,37.0,29.83,NW,324,9.0,32.0,94,0.00,,,0.68,,2013-03-13 10:22:00,
2013-03-13 06:32:00,39.0,37.0,29.83,NW,324,9.0,32.0,94,0.00,,,0.68,,2013-03-13 10:32:00,
2013-03-13 06:42:00,39.0,37.0,29.83,NW,324,9.0,32.0,94,0.00,,,0.68,,2013-03-13 10:42:00,
2013-03-13 06:52:00,39.0,37.0,29.83,NW,324,9.0,32.0,94,0.00,,,0.68,,2013-03-13 10:52:00,
2013-03-13 07:23:00,37.0,36.0,29.84,NW,307,6.0,32.0,95,0.00,,,0.68,,2013-03-13 11:23:00,
2013-03-13 07:32:00,37.0,36.0,29.84,NW,307,6.0,32.0,95,0.00,,,0.68,,2013-03-13 11:32:00,
2013-03-13 07:42:00,37.0,36.0,29.84,NW,307,6.0,32.0,95,0.00,,,0.68,,2013-03-13 11:42:00,
2013-03-13 07:53:00,37.0,36.0,29.84,NW,313,7.0,32.0,95,0.00,,,0.68,,2013-03-13 11:53:00,
2013-03-13 08:02:00,37.0,36.0,29.84,NW,313,7.0,32.0,95,0.00,,,0.68,,2013-03-13 12:02:00,
2013-03-13 08:12:00,37.0,36.0,29.84,NW,313,7.0,32.0,95,0.00,,,0.68,,2013-03-13 12:12:00,
2013-03-13 08:22:00,38.0,37.0,29.85,NW,315,6.0,32.0,95,0.00,,,0.68,,2013-03-13 12:22:00,
2013-03-13 08:32:00,38.0,37.0,29.85,NW,315,6.0,32.0,95,0.00,,,0.68,,2013-03-13 12:32:00,
2013-03-13 08:42:00,38.0,37.0,29.85,NW,315,6.0,32.0,95,0.00,,,0.68,,2013-03-13 12:42:00,
2013-03-13 08:53:00,39.0,37.0,29.85,NNW,331,1.0,32.0,94,0.00,,,0.68,,2013-03-13 12:53:00,
2013-03-13 09:02:00,39.0,37.0,29.85,NNW,331,1.0,32.0,94,0.00,,,0.68,,2013-03-13 13:02:00,
2013-03-13 09:12:00,39.0,37.0,29.85,NNW,331,1.0,32.0,94,0.00,,,0.68,,2013-03-13 13:12:00,
2013-03-13 09:22:00,40.0,38.0,29.85,NNW,330,6.0,32.0,92,0.00,,,0.68,,2013-03-13 13:22:00,
2013-03-13 09:33:00,40.0,38.0,29.85,NNW,330,6.0,32.0,92,0.00,,,0.68,,2013-03-13 13:33:00,
2013-03-13 09:43:00,40.0,38.0,29.85,NNW,330,6.0,32.0,92,0.00,,,0.68,,2013-03-13 13:43:00,
2013-03-13 09:53:00,42.0,39.0,29.85,NNW,333,5.0,32.0,90,0.00,,,0.68,,2013-03-13 13:53:00,
2013-03-13 10:02:00,42.0,39.0,29.85,NNW,333,5.0,32.0,90,0.00,,,0.68,,2013-03-13 14:02:00,
2013-03-13 10:12:00,42.0,39.0,29.85,NNW,333,5.0,32.0,90,0.00,,,0.68,,2013-03-13 14:12:00,
2013-03-13 10:22:00,42.0,39.0,29.84,NW,319,10.0,32.0,88,0.00,,,0.68,,2013-03-13 14:22:00,
2013-03-13 10:33:00,42.0,39.0,29.84,NW,319,10.0,32.0,88,0.00,,,0.68,,2013-03-13 14:33:00,
2013-03-13 10:42:00,42.0,39.0,29.84,NW,319,10.0,32.0,88,0.00,,,0.68,,2013-03-13 14:42:00,
2013-03-13 10:53:00,43.0,39.0,29.84,WNW,299,10.0,32.0,85,0.00,,,0.68,,2013-03-13 14:53:00,
2013-03-13 11:00:00,44.0,39.0,29.84,North,3,4.0,32.0,84,0.00,,,0.68,,2013-03-13 15:00:00,
2013-03-13 11:03:00,43.0,39.0,29.84,WNW,299,10.0,32.0,85,0.00,,,0.68,,2013-03-13 15:03:00,
2013-03-13 11:12:00,43.0,39.0,29.84,WNW,299,10.0,32.0,85,0.00,,,0.68,,2013-03-13 15:12:00,
2013-03-13 11:22:00,44.0,39.0,29.84,North,3,4.0,32.0,84,0.00,,,0.68,,2013-03-13 15:22:00,
2013-03-13 11:32:00,44.0,39.0,29.84,North,3,4.0,32.0,84,0.00,,,0.68,,2013-03-13 15:32:00,
2013-03-13 11:43:00,44.0,39.0,29.84,North,3,4.0,32.0,84,0.00,,,0.68,,2013-03-13 15:43:00,
2013-03-13 11:53:00,44.0,39.0,29.84,North,3,4.0,32.0,84,0.00,,,0.68,,2013-03-13 15:53:00,
2013-03-13 12:22:00,47.0,40.0,29.83,NNW,332,4.0,32.0,76,0.00,,,0.68,,2013-03-13 16:22:00,
2013-03-13 12:33:00,47.0,40.0,29.83,NNW,332,4.0,32.0,76,0.00,,,0.68,,2013-03-13 16:33:00,
2013-03-13 12:42:00,47.0,40.0,29.83,NNW,332,4.0,32.0,76,0.00,,,0.68,,2013-03-13 16:42:00,
2013-03-13 12:52:00,47.0,37.0,29.82,NW,313,8.0,32.0,69,0.00,,,0.68,,2013-03-13 16:52:00,
2013-03-13 13:02:00,47.0,37.0,29.82,NW,313,8.0,32.0,69,0.00,,,0.68,,2013-03-13 17:02:00,
2013-03-13 13:12:00,47.0,37.0,29.82,NW,313,8.0,32.0,69,0.00,,,0.68,,2013-03-13 17:12:00,
2013-03-13 13:22:00,48.0,38.0,29.82,NW,320,6.0,32.0,67,0.00,,,0.68,,2013-03-13 17:22:00,
2013-03-13 13:32:00,48.0,38.0,29.82,NW,320,6.0,32.0,67,0.00,,,0.68,,2013-03-13 17:32:00,
2013-03-13 13:42:00,48.0,38.0,29.82,NW,320,6.0,32.0,67,0.00,,,0.68,,2013-03-13 17:42:00,
2013-03-13 13:53:00,49.0,37.0,29.80,NNW,335,8.0,32.0,64,0.00,,,0.68,,2013-03-13 17:53:00,
2013-03-13 14:02:00,49.0,37.0,29.80,NNW,335,8.0,32.0,64,0.00,,,0.68,,2013-03-13 18:02:00,
2013-03-13 14:13:00,49.0,37.0,29.80,NNW,335,8.0,32.0,64,0.00,,,0.68,,2013-03-13 18:13:00,
2013-03-13 14:22:00,49.0,37.0,29.79,NNW,334,6.0,32.0,63,0.00,,,0.68,,2013-03-13 18:22:00,
2013-03-13 14:33:00,49.0,37.0,29.79,NNW,334,6.0,32.0,63,0.00,,,0.68,,2013-03-13 18:33:00,
2013-03-13 14:43:00,49.0,37.0,29.79,NNW,334,6.0,32.0,63,0.00,,,0.68,,2013-03-13 18:43:00,
2013-03-13 14:52:00,50.0,36.0,29.79,West,270,1.0,32.0,58,0.00,,,0.68,,2013-03-13 18:52:00,
2013-03-13 15:02:00,50.0,36.0,29.79,West,270,1.0,32.0,58,0.00,,,0.68,,2013-03-13 19:02:00,
2013-03-13 15:12:00,50.0,36.0,29.79,West,270,1.0,32.0,58,0.00,,,0.68,,2013-03-13 19:12:00,
2013-03-13 15:22:00,51.0,35.0,29.78,WNW,289,6.0,32.0,55,0.00,,,0.68,,2013-03-13 19:22:00,
2013-03-13 15:32:00,51.0,35.0,29.78,WNW,289,6.0,32.0,55,0.00,,,0.68,,2013-03-13 19:32:00,
2013-03-13 15:43:00,51.0,35.0,29.78,WNW,289,6.0,32.0,55,0.00,,,0.68,,2013-03-13 19:43:00,
2013-03-13 15:53:00,51.0,34.0,29.78,NW,307,4.0,32.0,53,0.00,,,0.66,,2013-03-13 19:53:00,
2013-03-13 16:02:00,51.0,34.0,29.78,NW,307,4.0,32.0,53,0.00,,,0.66,,2013-03-13 20:02:00,
2013-03-13 16:12:00,51.0,34.0,29.78,NW,307,4.0,32.0,53,0.00,,,0.66,,2013-03-13 20:12:00,
2013-03-13 16:22:00,51.0,34.0,29.77,NNW,348,2.0,32.0,52,0.00,,,0.65,,2013-03-13 20:22:00,
2013-03-13 16:32:00,51.0,34.0,29.77,NNW,348,2.0,32.0,52,0.00,,,0.65,,2013-03-13 20:32:00,
2013-03-13 16:42:00,51.0,34.0,29.77,NNW,348,2.0,32.0,52,0.00,,,0.65,,2013-03-13 20:42:00,
2013-03-13 16:52:00,50.0,33.0,29.78,NW,308,7.0,32.0,51,0.00,,,0.59,,2013-03-13 20:52:00,
2013-03-13 17:02:00,50.0,33.0,29.78,NW,308,7.0,32.0,51,0.00,,,0.59,,2013-03-13 21:02:00,
2013-03-13 17:12:00,50.0,33.0,29.78,NW,308,7.0,32.0,51,0.00,,,0.59,,2013-03-13 21:12:00,
2013-03-13 17:22:00,50.0,29.0,29.78,NW,326,5.0,32.0,45,0.00,,,0.55,,2013-03-13 21:22:00,
2013-03-13 17:33:00,50.0,29.0,29.78,NW,326,5.0,32.0,45,0.00,,,0.55,,2013-03-13 21:33:00,
2013-03-13 17:42:00,50.0,29.0,29.78,NW,326,5.0,32.0,45,0.00,,,0.55,,2013-03-13 21:42:00,
2013-03-13 17:52:00,49.0,31.0,29.79,WNW,302,5.0,32.0,49,0.00,,,0.53,,2013-03-13 21:52:00,
2013-03-13 18:02:00,49.0,31.0,29.79,WNW,302,5.0,32.0,49,0.00,,,0.53,,2013-03-13 22:02:00,
2013-03-13 18:12:00,49.0,31.0,29.79,WNW,302,5.0,32.0,49,0.00,,,0.53,,2013-03-13 22:12:00,
2013-03-13 18:22:00,48.0,31.0,29.79,West,272,3.0,32.0,52,0.00,,,0.47,,2013-03-13 22:22:00,
2013-03-13 18:32:00,48.0,31.0,29.79,West,272,3.0,32.0,52,0.00,,,0.47,,2013-03-13 22:32:00,
2013-03-13 18:42:00,48.0,31.0,29.79,West,272,3.0,32.0,52,0.00,,,0.47,,2013-03-13 22:42:00,
2013-03-13 18:52:00,47.0,31.0,29.80,NW,312,3.0,32.0,54,0.00,,,0.38,,2013-03-13 22:52:00,
2013-03-13 19:02:00,47.0,31.0,29.80,NW,312,3.0,32.0,54,0.00,,,0.38,,2013-03-13 23:02:00,
2013-03-13 19:12:00,47.0,31.0,29.80,NW,312,3.0,32.0,54,0.00,,,0.38,,2013-03-13 23:12:00,
2013-03-13 19:22:00,46.0,31.0,29.81,NW,311,0.0,32.0,56,0.00,,,0.16,,2013-03-13 23:22:00,
2013-03-13 19:32:00,46.0,31.0,29.81,NW,311,0.0,32.0,56,0.00,,,0.16,,2013-03-13 23:32:00,
2013-03-13 19:43:00,46.0,31.0,29.81,NW,311,0.0,32.0,56,0.00,,,0.16,,2013-03-13 23:43:00,
2013-03-13 19:52:00,45.0,32.0,29.82,WNW,284,0.0,32.0,59,0.00,,,0.08,,2013-03-13 23:52:00,
2013-03-13 20:02:00,45.0,32.0,29.82,WNW,284,0.0,32.0,59,0.00,,,0.08,,2013-03-14 00:02:00,
2013-03-13 20:13:00,45.0,32.0,29.82,WNW,284,0.0,32.0,59,0.00,,,0.08,,2013-03-14 00:13:00,
2013-03-13 20:22:00,44.0,31.0,29.83,WNW,284,0.0,32.0,61,0.00,,,0.06,,2013-03-14 00:22:00,
2013-03-13 20:32:00,44.0,31.0,29.83,WNW,284,0.0,32.0,61,0.00,,,0.06,,2013-03-14 00:32:00,
2013-03-13 20:42:00,44.0,31.0,29.83,WNW,284,0.0,32.0,61,0.00,,,0.06,,2013-03-14 00:42:00,
2013-03-13 20:52:00,43.0,31.0,29.83,WNW,284,0.0,32.0,63,0.00,,,0.02,,2013-03-14 00:52:00,
2013-03-13 21:02:00,43.0,31.0,29.83,WNW,284,0.0,32.0,63,0.00,,,0.02,,2013-03-14 01:02:00,
2013-03-13 21:12:00,43.0,31.0,29.83,WNW,284,0.0,32.0,63,0.00,,,0.02,,2013-03-14 01:12:00,
2013-03-13 21:22:00,42.0,31.0,29.84,WNW,284,0.0,32.0,64,0.00,,,0.01,,2013-03-14 01:22:00,
2013-03-13 21:32:00,42.0,31.0,29.84,WNW,284,0.0,32.0,64,0.00,,,0.01,,2013-03-14 01:32:00,
2013-03-13 21:42:00,42.0,31.0,29.84,WNW,284,0.0,32.0,64,0.00,,,0.01,,2013-03-14 01:42:00,
2013-03-13 21:53:00,42.0,31.0,29.84,WNW,284,0.0,32.0,66,0.00,,,0.01,,2013-03-14 01:53:00,
2013-03-13 22:02:00,42.0,31.0,29.84,WNW,284,0.0,32.0,66,0.00,,,0.01,,2013-03-14 02:02:00,
2013-03-13 22:12:00,42.0,31.0,29.84,WNW,284,0.0,32.0,66,0.00,,,0.01,,2013-03-14 02:12:00,
2013-03-13 22:22:00,41.0,31.0,29.84,WNW,284,0.0,32.0,68,0.00,,,0.01,,2013-03-14 02:22:00,
2013-03-13 22:32:00,41.0,31.0,29.84,WNW,284,0.0,32.0,68,0.00,,,0.01,,2013-03-14 02:32:00,
2013-03-13 22:42:00,41.0,31.0,29.84,WNW,284,0.0,32.0,68,0.00,,,0.01,,2013-03-14 02:42:00,
2013-03-13 22:52:00,41.0,31.0,29.84,WNW,284,0.0,32.0,68,0.00,,,0.01,,2013-03-14 02:52:00,
2013-03-13 23:02:00,40.0,31.0,29.85,WNW,284,0.0,32.0,70,0.00,,,0.01,,2013-03-14 03:02:00,
2013-03-13 23:12:00,40.0,31.0,29.85,WNW,284,0.0,32.0,70,0.00,,,0.01,,2013-03-14 03:12:00,
2013-03-13 23:23:00,39.0,31.0,29.84,WNW,284,0.0,32.0,74,0.00,,,0.01,,2013-03-14 03:23:00,
2013-03-13 23:32:00,39.0,31.0,29.84,WNW,284,0.0,32.0,74,0.00,,,0.01,,2013-03-14 03:32:00,
2013-03-13 23:42:00,39.0,31.0,29.84,WNW,284,0.0,32.0,74,0.00,,,0.01,,2013-03-14 03:42:00,
2013-03-13 23:53:00,38.0,31.0,29.84,WNW,284,0.0,32.0,76,0.00,,,0.01,,2013-03-14 03:53:00,